sensor_id;sensor_type;location;lat;lon;timestamp;temperature;humidity
25616;DHT22;13482;48.234;13.006;2024-02-16T00:01:09;8.70;67.90
25616;DHT22;13482;48.234;13.006;2024-02-16T00:03:37;8.60;68.00
25616;DHT22;13482;48.234;13.006;2024-02-16T00:06:04;8.60;68.00
25616;DHT22;13482;48.234;13.006;2024-02-16T00:08:33;8.60;67.90
25616;DHT22;13482;48.234;13.006;2024-02-16T00:11:01;8.60;67.90
25616;DHT22;13482;48.234;13.006;2024-02-16T00:13:30;8.60;67.80
25616;DHT22;13482;48.234;13.006;2024-02-16T00:15:58;8.50;67.70
25616;DHT22;13482;48.234;13.006;2024-02-16T00:18:25;8.50;67.60
25616;DHT22;13482;48.234;13.006;2024-02-16T00:20:54;8.50;67.50
25616;DHT22;13482;48.234;13.006;2024-02-16T00:23:21;8.40;67.50
25616;DHT22;13482;48.234;13.006;2024-02-16T00:25:49;8.40;67.60
25616;DHT22;13482;48.234;13.006;2024-02-16T00:28:17;8.40;67.60
25616;DHT22;13482;48.234;13.006;2024-02-16T00:30:44;8.30;67.60
25616;DHT22;13482;48.234;13.006;2024-02-16T00:33:13;8.30;67.60
25616;DHT22;13482;48.234;13.006;2024-02-16T00:35:41;8.30;67.90
25616;DHT22;13482;48.234;13.006;2024-02-16T00:38:08;8.30;67.90
25616;DHT22;13482;48.234;13.006;2024-02-16T00:40:36;8.20;67.90
25616;DHT22;13482;48.234;13.006;2024-02-16T00:43:04;8.20;68.00
25616;DHT22;13482;48.234;13.006;2024-02-16T00:45:32;8.20;68.10
25616;DHT22;13482;48.234;13.006;2024-02-16T00:47:59;8.20;68.20
25616;DHT22;13482;48.234;13.006;2024-02-16T00:50:29;8.20;68.20
25616;DHT22;13482;48.234;13.006;2024-02-16T00:52:56;8.20;68.20
25616;DHT22;13482;48.234;13.006;2024-02-16T00:55:24;8.10;68.20
25616;DHT22;13482;48.234;13.006;2024-02-16T00:57:51;8.10;68.40
25616;DHT22;13482;48.234;13.006;2024-02-16T01:00:19;8.10;68.60
25616;DHT22;13482;48.234;13.006;2024-02-16T01:02:53;8.10;68.60
25616;DHT22;13482;48.234;13.006;2024-02-16T01:05:20;8.10;68.70
25616;DHT22;13482;48.234;13.006;2024-02-16T01:07:50;8.10;68.70
25616;DHT22;13482;48.234;13.006;2024-02-16T01:10:17;8.10;68.70
25616;DHT22;13482;48.234;13.006;2024-02-16T01:12:45;8.10;68.80
25616;DHT22;13482;48.234;13.006;2024-02-16T01:15:12;8.10;68.80
25616;DHT22;13482;48.234;13.006;2024-02-16T01:17:39;8.00;68.70
25616;DHT22;13482;48.234;13.006;2024-02-16T01:20:07;8.00;68.90
25616;DHT22;13482;48.234;13.006;2024-02-16T01:22:39;8.00;68.90
25616;DHT22;13482;48.234;13.006;2024-02-16T01:25:08;8.00;69.10
25616;DHT22;13482;48.234;13.006;2024-02-16T01:27:36;8.00;69.20
25616;DHT22;13482;48.234;13.006;2024-02-16T01:30:04;8.00;69.20
25616;DHT22;13482;48.234;13.006;2024-02-16T01:32:32;8.00;69.20
25616;DHT22;13482;48.234;13.006;2024-02-16T01:35:01;8.00;69.00
25616;DHT22;13482;48.234;13.006;2024-02-16T01:37:29;8.00;69.00
25616;DHT22;13482;48.234;13.006;2024-02-16T01:39:58;8.00;69.20
25616;DHT22;13482;48.234;13.006;2024-02-16T01:42:25;8.00;69.30
25616;DHT22;13482;48.234;13.006;2024-02-16T01:44:53;8.00;69.30
25616;DHT22;13482;48.234;13.006;2024-02-16T01:47:21;8.00;69.20
25616;DHT22;13482;48.234;13.006;2024-02-16T01:49:48;7.90;69.20
25616;DHT22;13482;48.234;13.006;2024-02-16T01:52:16;7.90;69.10
25616;DHT22;13482;48.234;13.006;2024-02-16T01:54:44;7.90;69.10
25616;DHT22;13482;48.234;13.006;2024-02-16T01:57:11;7.90;69.20
25616;DHT22;13482;48.234;13.006;2024-02-16T01:59:40;7.90;69.10
25616;DHT22;13482;48.234;13.006;2024-02-16T02:02:08;7.90;69.10
25616;DHT22;13482;48.234;13.006;2024-02-16T02:04:37;7.90;69.30
25616;DHT22;13482;48.234;13.006;2024-02-16T02:07:12;7.80;69.30
25616;DHT22;13482;48.234;13.006;2024-02-16T02:09:41;7.90;69.60
25616;DHT22;13482;48.234;13.006;2024-02-16T02:12:09;7.80;69.50
25616;DHT22;13482;48.234;13.006;2024-02-16T02:14:37;7.80;69.60
25616;DHT22;13482;48.234;13.006;2024-02-16T02:17:05;7.80;69.60
25616;DHT22;13482;48.234;13.006;2024-02-16T02:19:32;7.80;69.70
25616;DHT22;13482;48.234;13.006;2024-02-16T02:22:00;7.80;69.70
25616;DHT22;13482;48.234;13.006;2024-02-16T02:24:28;7.80;69.70
25616;DHT22;13482;48.234;13.006;2024-02-16T02:26:56;7.80;69.80
25616;DHT22;13482;48.234;13.006;2024-02-16T02:29:24;7.80;69.80
25616;DHT22;13482;48.234;13.006;2024-02-16T02:31:52;7.80;69.80
25616;DHT22;13482;48.234;13.006;2024-02-16T02:34:19;7.70;70.00
25616;DHT22;13482;48.234;13.006;2024-02-16T02:36:47;7.70;70.00
25616;DHT22;13482;48.234;13.006;2024-02-16T02:39:15;7.70;69.90
25616;DHT22;13482;48.234;13.006;2024-02-16T02:41:43;7.70;69.70
25616;DHT22;13482;48.234;13.006;2024-02-16T02:44:10;7.70;69.60
25616;DHT22;13482;48.234;13.006;2024-02-16T02:46:38;7.70;69.50
25616;DHT22;13482;48.234;13.006;2024-02-16T02:49:06;7.70;69.50
25616;DHT22;13482;48.234;13.006;2024-02-16T02:51:33;7.60;69.60
25616;DHT22;13482;48.234;13.006;2024-02-16T02:54:01;7.60;69.80
25616;DHT22;13482;48.234;13.006;2024-02-16T02:56:28;7.60;69.70
25616;DHT22;13482;48.234;13.006;2024-02-16T02:58:56;7.60;69.70
25616;DHT22;13482;48.234;13.006;2024-02-16T03:01:24;7.60;69.80
25616;DHT22;13482;48.234;13.006;2024-02-16T03:03:51;7.60;69.90
25616;DHT22;13482;48.234;13.006;2024-02-16T03:06:20;7.50;69.90
25616;DHT22;13482;48.234;13.006;2024-02-16T03:08:48;7.50;69.90
25616;DHT22;13482;48.234;13.006;2024-02-16T03:11:16;7.50;69.80
25616;DHT22;13482;48.234;13.006;2024-02-16T03:13:44;7.50;69.70
25616;DHT22;13482;48.234;13.006;2024-02-16T03:16:11;7.50;69.70
25616;DHT22;13482;48.234;13.006;2024-02-16T03:18:39;7.40;69.70
25616;DHT22;13482;48.234;13.006;2024-02-16T03:21:07;7.40;69.70
25616;DHT22;13482;48.234;13.006;2024-02-16T03:23:35;7.40;69.70
25616;DHT22;13482;48.234;13.006;2024-02-16T03:26:04;7.40;69.80
25616;DHT22;13482;48.234;13.006;2024-02-16T03:28:31;7.40;70.00
25616;DHT22;13482;48.234;13.006;2024-02-16T03:30:59;7.40;70.10
25616;DHT22;13482;48.234;13.006;2024-02-16T03:33:28;7.40;70.20
25616;DHT22;13482;48.234;13.006;2024-02-16T03:35:56;7.40;70.20
25616;DHT22;13482;48.234;13.006;2024-02-16T03:38:23;7.30;70.10
25616;DHT22;13482;48.234;13.006;2024-02-16T03:40:51;7.30;70.00
25616;DHT22;13482;48.234;13.006;2024-02-16T03:43:19;7.30;69.90
25616;DHT22;13482;48.234;13.006;2024-02-16T03:45:46;7.30;69.80
25616;DHT22;13482;48.234;13.006;2024-02-16T03:48:13;7.30;70.00
25616;DHT22;13482;48.234;13.006;2024-02-16T03:50:41;7.30;70.10
25616;DHT22;13482;48.234;13.006;2024-02-16T03:53:10;7.20;70.20
25616;DHT22;13482;48.234;13.006;2024-02-16T03:55:38;7.20;70.20
25616;DHT22;13482;48.234;13.006;2024-02-16T03:58:05;7.20;70.20
25616;DHT22;13482;48.234;13.006;2024-02-16T04:00:33;7.20;70.10
25616;DHT22;13482;48.234;13.006;2024-02-16T04:03:01;7.20;70.00
25616;DHT22;13482;48.234;13.006;2024-02-16T04:05:31;7.10;69.90
25616;DHT22;13482;48.234;13.006;2024-02-16T04:08:01;7.10;69.80
25616;DHT22;13482;48.234;13.006;2024-02-16T04:10:33;7.10;69.80
25616;DHT22;13482;48.234;13.006;2024-02-16T04:13:03;7.10;70.00
25616;DHT22;13482;48.234;13.006;2024-02-16T04:15:30;7.10;70.20
25616;DHT22;13482;48.234;13.006;2024-02-16T04:17:58;7.10;70.10
25616;DHT22;13482;48.234;13.006;2024-02-16T04:20:26;7.00;70.00
25616;DHT22;13482;48.234;13.006;2024-02-16T04:22:54;7.00;69.90
25616;DHT22;13482;48.234;13.006;2024-02-16T04:25:21;7.00;69.90
25616;DHT22;13482;48.234;13.006;2024-02-16T04:27:49;6.90;69.90
25616;DHT22;13482;48.234;13.006;2024-02-16T04:30:16;6.90;69.90
25616;DHT22;13482;48.234;13.006;2024-02-16T04:32:44;6.90;69.90
25616;DHT22;13482;48.234;13.006;2024-02-16T04:35:12;6.90;69.80
25616;DHT22;13482;48.234;13.006;2024-02-16T04:37:40;6.80;69.80
25616;DHT22;13482;48.234;13.006;2024-02-16T04:40:07;6.80;69.80
25616;DHT22;13482;48.234;13.006;2024-02-16T04:42:35;6.80;69.70
25616;DHT22;13482;48.234;13.006;2024-02-16T04:45:03;6.70;69.80
25616;DHT22;13482;48.234;13.006;2024-02-16T04:47:32;6.70;69.80
25616;DHT22;13482;48.234;13.006;2024-02-16T04:50:00;6.70;69.90
25616;DHT22;13482;48.234;13.006;2024-02-16T04:52:27;6.60;70.00
25616;DHT22;13482;48.234;13.006;2024-02-16T04:54:57;6.60;70.00
25616;DHT22;13482;48.234;13.006;2024-02-16T04:57:24;6.60;70.10
25616;DHT22;13482;48.234;13.006;2024-02-16T04:59:52;6.60;70.10
25616;DHT22;13482;48.234;13.006;2024-02-16T05:02:19;6.50;70.10
25616;DHT22;13482;48.234;13.006;2024-02-16T05:04:47;6.50;70.00
25616;DHT22;13482;48.234;13.006;2024-02-16T05:07:14;6.50;69.90
25616;DHT22;13482;48.234;13.006;2024-02-16T05:09:43;6.50;69.90
25616;DHT22;13482;48.234;13.006;2024-02-16T05:12:11;6.40;70.00
25616;DHT22;13482;48.234;13.006;2024-02-16T05:14:39;6.40;70.10
25616;DHT22;13482;48.234;13.006;2024-02-16T05:17:07;6.40;70.10
25616;DHT22;13482;48.234;13.006;2024-02-16T05:19:35;6.40;70.30
25616;DHT22;13482;48.234;13.006;2024-02-16T05:22:04;6.40;70.30
25616;DHT22;13482;48.234;13.006;2024-02-16T05:24:31;6.40;70.20
25616;DHT22;13482;48.234;13.006;2024-02-16T05:26:59;6.30;70.10
25616;DHT22;13482;48.234;13.006;2024-02-16T05:29:27;6.30;70.10
25616;DHT22;13482;48.234;13.006;2024-02-16T05:31:54;6.30;70.10
25616;DHT22;13482;48.234;13.006;2024-02-16T05:34:22;6.20;70.00
25616;DHT22;13482;48.234;13.006;2024-02-16T05:36:50;6.20;69.90
25616;DHT22;13482;48.234;13.006;2024-02-16T05:39:18;6.20;70.00
25616;DHT22;13482;48.234;13.006;2024-02-16T05:41:54;6.10;70.20
25616;DHT22;13482;48.234;13.006;2024-02-16T05:44:21;6.10;70.20
25616;DHT22;13482;48.234;13.006;2024-02-16T05:46:49;6.10;70.00
25616;DHT22;13482;48.234;13.006;2024-02-16T05:49:16;6.10;70.10
25616;DHT22;13482;48.234;13.006;2024-02-16T05:51:44;6.00;70.10
25616;DHT22;13482;48.234;13.006;2024-02-16T05:54:31;6.00;70.10
25616;DHT22;13482;48.234;13.006;2024-02-16T05:57:04;6.00;70.00
25616;DHT22;13482;48.234;13.006;2024-02-16T05:59:32;5.90;69.90
25616;DHT22;13482;48.234;13.006;2024-02-16T06:02:00;5.90;70.10
25616;DHT22;13482;48.234;13.006;2024-02-16T06:04:27;5.80;70.10
25616;DHT22;13482;48.234;13.006;2024-02-16T06:06:55;5.80;70.10
25616;DHT22;13482;48.234;13.006;2024-02-16T06:09:22;5.70;70.10
25616;DHT22;13482;48.234;13.006;2024-02-16T06:11:50;5.70;70.10
25616;DHT22;13482;48.234;13.006;2024-02-16T06:14:17;5.60;70.00
25616;DHT22;13482;48.234;13.006;2024-02-16T06:16:46;5.60;70.10
25616;DHT22;13482;48.234;13.006;2024-02-16T06:19:14;5.50;70.20
25616;DHT22;13482;48.234;13.006;2024-02-16T06:21:42;5.50;70.40
25616;DHT22;13482;48.234;13.006;2024-02-16T06:24:09;5.50;70.40
25616;DHT22;13482;48.234;13.006;2024-02-16T06:26:37;5.40;70.50
25616;DHT22;13482;48.234;13.006;2024-02-16T06:29:04;5.40;70.70
25616;DHT22;13482;48.234;13.006;2024-02-16T06:31:32;5.40;70.80
25616;DHT22;13482;48.234;13.006;2024-02-16T06:33:59;5.40;70.80
25616;DHT22;13482;48.234;13.006;2024-02-16T06:36:27;5.40;70.90
25616;DHT22;13482;48.234;13.006;2024-02-16T06:38:56;5.40;71.10
25616;DHT22;13482;48.234;13.006;2024-02-16T06:41:23;5.40;71.20
25616;DHT22;13482;48.234;13.006;2024-02-16T06:43:51;5.40;71.10
25616;DHT22;13482;48.234;13.006;2024-02-16T06:46:19;5.40;71.20
25616;DHT22;13482;48.234;13.006;2024-02-16T06:48:46;5.40;71.20
25616;DHT22;13482;48.234;13.006;2024-02-16T06:51:14;5.50;71.10
25616;DHT22;13482;48.234;13.006;2024-02-16T06:53:41;5.50;71.00
25616;DHT22;13482;48.234;13.006;2024-02-16T06:56:09;5.50;71.10
25616;DHT22;13482;48.234;13.006;2024-02-16T06:58:37;5.60;71.00
25616;DHT22;13482;48.234;13.006;2024-02-16T07:01:04;5.60;71.10
25616;DHT22;13482;48.234;13.006;2024-02-16T07:03:32;5.60;71.00
25616;DHT22;13482;48.234;13.006;2024-02-16T07:06:00;5.70;71.00
25616;DHT22;13482;48.234;13.006;2024-02-16T07:08:28;5.70;71.00
25616;DHT22;13482;48.234;13.006;2024-02-16T07:10:55;5.80;71.10
25616;DHT22;13482;48.234;13.006;2024-02-16T07:13:23;5.80;71.10
25616;DHT22;13482;48.234;13.006;2024-02-16T07:15:51;5.80;71.10
25616;DHT22;13482;48.234;13.006;2024-02-16T07:18:19;5.90;71.10
25616;DHT22;13482;48.234;13.006;2024-02-16T07:20:47;6.00;71.20
25616;DHT22;13482;48.234;13.006;2024-02-16T07:23:17;6.00;71.30
25616;DHT22;13482;48.234;13.006;2024-02-16T07:25:45;6.10;71.40
25616;DHT22;13482;48.234;13.006;2024-02-16T07:28:13;6.10;71.50
25616;DHT22;13482;48.234;13.006;2024-02-16T07:30:40;6.20;71.40
25616;DHT22;13482;48.234;13.006;2024-02-16T07:33:09;6.30;71.50
25616;DHT22;13482;48.234;13.006;2024-02-16T07:35:37;6.30;71.70
25616;DHT22;13482;48.234;13.006;2024-02-16T07:38:05;6.40;71.80
25616;DHT22;13482;48.234;13.006;2024-02-16T07:40:33;6.50;71.90
25616;DHT22;13482;48.234;13.006;2024-02-16T07:43:01;6.60;72.00
25616;DHT22;13482;48.234;13.006;2024-02-16T07:45:30;6.70;72.30
25616;DHT22;13482;48.234;13.006;2024-02-16T07:47:57;6.80;72.50
25616;DHT22;13482;48.234;13.006;2024-02-16T07:50:25;6.90;72.60
25616;DHT22;13482;48.234;13.006;2024-02-16T07:52:53;7.00;72.90
25616;DHT22;13482;48.234;13.006;2024-02-16T07:55:20;7.10;73.10
25616;DHT22;13482;48.234;13.006;2024-02-16T07:57:49;7.20;73.30
25616;DHT22;13482;48.234;13.006;2024-02-16T08:00:17;7.30;73.40
25616;DHT22;13482;48.234;13.006;2024-02-16T08:02:45;7.50;73.60
25616;DHT22;13482;48.234;13.006;2024-02-16T08:05:13;7.60;73.80
25616;DHT22;13482;48.234;13.006;2024-02-16T08:07:41;7.80;74.00
25616;DHT22;13482;48.234;13.006;2024-02-16T08:10:10;8.00;74.30
25616;DHT22;13482;48.234;13.006;2024-02-16T08:12:39;8.20;74.40
25616;DHT22;13482;48.234;13.006;2024-02-16T08:15:08;8.30;74.70
25616;DHT22;13482;48.234;13.006;2024-02-16T08:17:37;8.60;74.90
25616;DHT22;13482;48.234;13.006;2024-02-16T08:20:06;8.80;75.00
25616;DHT22;13482;48.234;13.006;2024-02-16T08:22:38;9.00;75.10
25616;DHT22;13482;48.234;13.006;2024-02-16T08:25:06;9.20;75.10
25616;DHT22;13482;48.234;13.006;2024-02-16T08:27:34;9.40;75.10
25616;DHT22;13482;48.234;13.006;2024-02-16T08:30:02;9.60;74.90
25616;DHT22;13482;48.234;13.006;2024-02-16T08:32:30;9.80;74.80
25616;DHT22;13482;48.234;13.006;2024-02-16T08:34:58;10.00;74.80
25616;DHT22;13482;48.234;13.006;2024-02-16T08:37:26;10.20;74.70
25616;DHT22;13482;48.234;13.006;2024-02-16T08:39:54;10.30;74.60
25616;DHT22;13482;48.234;13.006;2024-02-16T08:42:21;10.50;74.60
25616;DHT22;13482;48.234;13.006;2024-02-16T08:44:50;10.70;74.50
25616;DHT22;13482;48.234;13.006;2024-02-16T08:47:17;10.90;74.10
25616;DHT22;13482;48.234;13.006;2024-02-16T08:49:46;11.00;74.00
25616;DHT22;13482;48.234;13.006;2024-02-16T08:52:14;11.20;73.80
25616;DHT22;13482;48.234;13.006;2024-02-16T08:54:43;11.30;73.70
25616;DHT22;13482;48.234;13.006;2024-02-16T08:57:11;11.50;73.50
25616;DHT22;13482;48.234;13.006;2024-02-16T08:59:39;11.60;73.40
25616;DHT22;13482;48.234;13.006;2024-02-16T09:02:07;11.70;73.20
25616;DHT22;13482;48.234;13.006;2024-02-16T09:04:34;11.80;73.10
25616;DHT22;13482;48.234;13.006;2024-02-16T09:07:02;12.00;73.00
25616;DHT22;13482;48.234;13.006;2024-02-16T09:09:30;12.00;72.90
25616;DHT22;13482;48.234;13.006;2024-02-16T09:11:58;12.20;72.90
25616;DHT22;13482;48.234;13.006;2024-02-16T09:14:25;12.30;72.60
25616;DHT22;13482;48.234;13.006;2024-02-16T09:16:53;12.40;72.20
25616;DHT22;13482;48.234;13.006;2024-02-16T09:19:20;12.40;71.90
25616;DHT22;13482;48.234;13.006;2024-02-16T09:21:49;12.50;71.90
25616;DHT22;13482;48.234;13.006;2024-02-16T09:24:21;12.60;72.00
25616;DHT22;13482;48.234;13.006;2024-02-16T09:26:48;12.70;72.00
25616;DHT22;13482;48.234;13.006;2024-02-16T09:29:16;12.80;72.10
25616;DHT22;13482;48.234;13.006;2024-02-16T09:31:45;12.90;72.20
25616;DHT22;13482;48.234;13.006;2024-02-16T09:34:16;13.00;72.20
25616;DHT22;13482;48.234;13.006;2024-02-16T09:36:44;13.10;72.20
25616;DHT22;13482;48.234;13.006;2024-02-16T09:39:12;13.20;72.20
25616;DHT22;13482;48.234;13.006;2024-02-16T09:41:42;13.40;72.00
25616;DHT22;13482;48.234;13.006;2024-02-16T09:44:12;13.50;71.90
25616;DHT22;13482;48.234;13.006;2024-02-16T09:46:40;13.60;71.80
25616;DHT22;13482;48.234;13.006;2024-02-16T09:49:08;13.80;71.50
25616;DHT22;13482;48.234;13.006;2024-02-16T09:51:37;13.90;71.50
25616;DHT22;13482;48.234;13.006;2024-02-16T09:54:05;14.00;71.50
25616;DHT22;13482;48.234;13.006;2024-02-16T09:56:34;14.10;71.40
25616;DHT22;13482;48.234;13.006;2024-02-16T09:59:02;14.20;71.40
25616;DHT22;13482;48.234;13.006;2024-02-16T10:01:32;14.40;71.50
25616;DHT22;13482;48.234;13.006;2024-02-16T10:04:07;14.50;71.20
25616;DHT22;13482;48.234;13.006;2024-02-16T10:06:46;14.70;71.10
25616;DHT22;13482;48.234;13.006;2024-02-16T10:09:25;14.80;70.90
25616;DHT22;13482;48.234;13.006;2024-02-16T10:11:54;15.00;71.00
25616;DHT22;13482;48.234;13.006;2024-02-16T10:14:26;15.10;71.00
25616;DHT22;13482;48.234;13.006;2024-02-16T10:19:30;15.40;70.60
25616;DHT22;13482;48.234;13.006;2024-02-16T10:22:12;15.50;70.60
25616;DHT22;13482;48.234;13.006;2024-02-16T10:24:41;15.60;70.40
25616;DHT22;13482;48.234;13.006;2024-02-16T10:27:14;15.70;70.10
25616;DHT22;13482;48.234;13.006;2024-02-16T10:29:44;15.90;69.80
25616;DHT22;13482;48.234;13.006;2024-02-16T10:32:17;16.00;69.70
25616;DHT22;13482;48.234;13.006;2024-02-16T10:34:46;16.10;69.80
25616;DHT22;13482;48.234;13.006;2024-02-16T10:37:16;16.20;69.70
25616;DHT22;13482;48.234;13.006;2024-02-16T10:39:45;16.30;69.60
25616;DHT22;13482;48.234;13.006;2024-02-16T10:42:15;16.50;69.70
25616;DHT22;13482;48.234;13.006;2024-02-16T10:44:44;16.60;69.90
25616;DHT22;13482;48.234;13.006;2024-02-16T10:47:12;16.80;69.80
25616;DHT22;13482;48.234;13.006;2024-02-16T10:49:40;16.90;69.80
25616;DHT22;13482;48.234;13.006;2024-02-16T10:52:08;17.00;69.60
25616;DHT22;13482;48.234;13.006;2024-02-16T10:54:37;17.20;69.30
25616;DHT22;13482;48.234;13.006;2024-02-16T10:57:09;17.40;69.20
25616;DHT22;13482;48.234;13.006;2024-02-16T10:59:43;17.50;69.20
25616;DHT22;13482;48.234;13.006;2024-02-16T11:02:13;17.60;69.20
25616;DHT22;13482;48.234;13.006;2024-02-16T11:04:41;17.80;68.80
25616;DHT22;13482;48.234;13.006;2024-02-16T11:07:18;17.90;68.50
25616;DHT22;13482;48.234;13.006;2024-02-16T11:09:47;18.10;68.20
25616;DHT22;13482;48.234;13.006;2024-02-16T11:12:16;18.20;68.20
25616;DHT22;13482;48.234;13.006;2024-02-16T11:14:45;18.30;68.00
25616;DHT22;13482;48.234;13.006;2024-02-16T11:17:23;18.40;68.10
25616;DHT22;13482;48.234;13.006;2024-02-16T11:19:54;18.50;68.00
25616;DHT22;13482;48.234;13.006;2024-02-16T11:22:22;18.70;67.90
25616;DHT22;13482;48.234;13.006;2024-02-16T11:24:55;18.80;68.10
25616;DHT22;13482;48.234;13.006;2024-02-16T11:27:31;19.00;67.80
25616;DHT22;13482;48.234;13.006;2024-02-16T11:30:01;19.10;67.30
25616;DHT22;13482;48.234;13.006;2024-02-16T11:32:32;19.30;67.30
25616;DHT22;13482;48.234;13.006;2024-02-16T11:35:05;19.40;66.70
25616;DHT22;13482;48.234;13.006;2024-02-16T11:37:36;19.50;66.10
25616;DHT22;13482;48.234;13.006;2024-02-16T11:40:06;19.70;66.50
25616;DHT22;13482;48.234;13.006;2024-02-16T11:42:36;19.80;66.30
25616;DHT22;13482;48.234;13.006;2024-02-16T11:45:04;19.90;66.60
25616;DHT22;13482;48.234;13.006;2024-02-16T11:47:33;20.00;66.60
25616;DHT22;13482;48.234;13.006;2024-02-16T11:50:02;20.10;66.20
25616;DHT22;13482;48.234;13.006;2024-02-16T11:52:41;20.20;65.50
25616;DHT22;13482;48.234;13.006;2024-02-16T11:55:10;20.30;64.80
25616;DHT22;13482;48.234;13.006;2024-02-16T11:57:39;20.30;64.40
25616;DHT22;13482;48.234;13.006;2024-02-16T12:00:07;20.30;64.30
25616;DHT22;13482;48.234;13.006;2024-02-16T12:02:38;20.40;64.50
25616;DHT22;13482;48.234;13.006;2024-02-16T12:05:07;20.40;64.70
25616;DHT22;13482;48.234;13.006;2024-02-16T12:07:38;20.50;64.70
25616;DHT22;13482;48.234;13.006;2024-02-16T12:10:11;20.60;64.20
25616;DHT22;13482;48.234;13.006;2024-02-16T12:12:39;20.70;64.10
25616;DHT22;13482;48.234;13.006;2024-02-16T12:15:10;20.70;63.60
25616;DHT22;13482;48.234;13.006;2024-02-16T12:17:40;20.70;63.30
25616;DHT22;13482;48.234;13.006;2024-02-16T12:20:14;20.70;63.20
25616;DHT22;13482;48.234;13.006;2024-02-16T12:22:42;20.80;62.50
25616;DHT22;13482;48.234;13.006;2024-02-16T12:25:10;20.80;62.80
25616;DHT22;13482;48.234;13.006;2024-02-16T12:27:39;20.80;62.90
25616;DHT22;13482;48.234;13.006;2024-02-16T12:30:08;20.80;62.90
25616;DHT22;13482;48.234;13.006;2024-02-16T12:32:36;20.90;62.60
25616;DHT22;13482;48.234;13.006;2024-02-16T12:35:04;20.90;62.40
25616;DHT22;13482;48.234;13.006;2024-02-16T12:37:33;20.90;62.40
25616;DHT22;13482;48.234;13.006;2024-02-16T12:40:02;21.00;62.50
25616;DHT22;13482;48.234;13.006;2024-02-16T12:42:31;21.10;62.70
25616;DHT22;13482;48.234;13.006;2024-02-16T12:44:59;21.10;62.80
25616;DHT22;13482;48.234;13.006;2024-02-16T12:47:27;21.30;62.60
25616;DHT22;13482;48.234;13.006;2024-02-16T12:49:56;21.30;62.40
25616;DHT22;13482;48.234;13.006;2024-02-16T12:52:28;21.50;62.00
25616;DHT22;13482;48.234;13.006;2024-02-16T12:54:56;21.50;61.90
25616;DHT22;13482;48.234;13.006;2024-02-16T12:57:26;21.60;61.80
25616;DHT22;13482;48.234;13.006;2024-02-16T12:59:56;21.70;61.90
25616;DHT22;13482;48.234;13.006;2024-02-16T13:02:23;21.80;61.90
25616;DHT22;13482;48.234;13.006;2024-02-16T13:04:51;21.90;61.50
25616;DHT22;13482;48.234;13.006;2024-02-16T13:07:20;21.90;61.40
25616;DHT22;13482;48.234;13.006;2024-02-16T13:09:48;22.00;61.30
25616;DHT22;13482;48.234;13.006;2024-02-16T13:12:19;22.10;60.70
25616;DHT22;13482;48.234;13.006;2024-02-16T13:14:49;22.10;60.70
25616;DHT22;13482;48.234;13.006;2024-02-16T13:17:17;22.20;60.70
25616;DHT22;13482;48.234;13.006;2024-02-16T13:19:45;22.20;60.90
25616;DHT22;13482;48.234;13.006;2024-02-16T13:22:13;22.20;60.50
25616;DHT22;13482;48.234;13.006;2024-02-16T13:24:40;22.20;59.90
25616;DHT22;13482;48.234;13.006;2024-02-16T13:27:08;22.20;60.20
25616;DHT22;13482;48.234;13.006;2024-02-16T13:29:36;22.30;60.00
25616;DHT22;13482;48.234;13.006;2024-02-16T13:32:04;22.30;60.40
25616;DHT22;13482;48.234;13.006;2024-02-16T13:34:33;22.30;60.30
25616;DHT22;13482;48.234;13.006;2024-02-16T13:37:01;22.40;60.20
25616;DHT22;13482;48.234;13.006;2024-02-16T13:39:28;22.40;60.20
25616;DHT22;13482;48.234;13.006;2024-02-16T13:41:57;22.50;60.80
25616;DHT22;13482;48.234;13.006;2024-02-16T13:44:25;22.60;60.80
25616;DHT22;13482;48.234;13.006;2024-02-16T13:46:52;22.70;60.00
25616;DHT22;13482;48.234;13.006;2024-02-16T13:49:20;22.80;59.30
25616;DHT22;13482;48.234;13.006;2024-02-16T13:51:48;22.80;59.50
25616;DHT22;13482;48.234;13.006;2024-02-16T13:54:15;22.80;59.50
25616;DHT22;13482;48.234;13.006;2024-02-16T13:56:45;22.80;59.60
25616;DHT22;13482;48.234;13.006;2024-02-16T13:59:12;22.90;59.60
25616;DHT22;13482;48.234;13.006;2024-02-16T14:01:42;23.00;59.60
25616;DHT22;13482;48.234;13.006;2024-02-16T14:04:10;23.10;59.60
25616;DHT22;13482;48.234;13.006;2024-02-16T14:06:38;23.20;59.50
25616;DHT22;13482;48.234;13.006;2024-02-16T14:09:06;23.30;59.40
25616;DHT22;13482;48.234;13.006;2024-02-16T14:11:50;23.40;59.80
25616;DHT22;13482;48.234;13.006;2024-02-16T14:14:18;23.60;59.60
25616;DHT22;13482;48.234;13.006;2024-02-16T14:17:02;23.70;59.40
25616;DHT22;13482;48.234;13.006;2024-02-16T14:19:29;23.80;59.40
25616;DHT22;13482;48.234;13.006;2024-02-16T14:21:58;23.90;59.40
25616;DHT22;13482;48.234;13.006;2024-02-16T14:24:25;24.10;59.00
25616;DHT22;13482;48.234;13.006;2024-02-16T14:26:53;24.20;59.00
25616;DHT22;13482;48.234;13.006;2024-02-16T14:29:22;24.40;59.10
25616;DHT22;13482;48.234;13.006;2024-02-16T14:31:49;24.50;59.30
25616;DHT22;13482;48.234;13.006;2024-02-16T14:34:17;24.80;59.10
25616;DHT22;13482;48.234;13.006;2024-02-16T14:36:45;25.00;59.00
25616;DHT22;13482;48.234;13.006;2024-02-16T14:39:12;25.30;59.10
25616;DHT22;13482;48.234;13.006;2024-02-16T14:41:42;25.50;59.10
25616;DHT22;13482;48.234;13.006;2024-02-16T14:44:10;25.90;58.70
25616;DHT22;13482;48.234;13.006;2024-02-16T14:46:38;26.20;58.50
25616;DHT22;13482;48.234;13.006;2024-02-16T14:49:05;26.50;58.30
25616;DHT22;13482;48.234;13.006;2024-02-16T14:51:40;26.80;58.10
25616;DHT22;13482;48.234;13.006;2024-02-16T14:54:09;27.10;57.20
25616;DHT22;13482;48.234;13.006;2024-02-16T14:56:38;27.40;58.10
25616;DHT22;13482;48.234;13.006;2024-02-16T14:59:06;27.70;57.10
25616;DHT22;13482;48.234;13.006;2024-02-16T15:01:34;27.90;56.10
25616;DHT22;13482;48.234;13.006;2024-02-16T15:04:01;27.90;55.40
25616;DHT22;13482;48.234;13.006;2024-02-16T15:06:29;27.90;55.10
25616;DHT22;13482;48.234;13.006;2024-02-16T15:09:00;27.80;54.80
25616;DHT22;13482;48.234;13.006;2024-02-16T15:11:31;27.70;54.50
25616;DHT22;13482;48.234;13.006;2024-02-16T15:13:58;27.60;53.80
25616;DHT22;13482;48.234;13.006;2024-02-16T15:16:28;27.40;53.70
25616;DHT22;13482;48.234;13.006;2024-02-16T15:18:55;27.20;53.40
25616;DHT22;13482;48.234;13.006;2024-02-16T15:21:24;27.00;53.40
25616;DHT22;13482;48.234;13.006;2024-02-16T15:23:51;26.90;53.50
25616;DHT22;13482;48.234;13.006;2024-02-16T15:26:19;26.80;53.80
25616;DHT22;13482;48.234;13.006;2024-02-16T15:28:46;26.70;53.90
25616;DHT22;13482;48.234;13.006;2024-02-16T15:31:14;26.70;54.10
25616;DHT22;13482;48.234;13.006;2024-02-16T15:33:41;26.70;54.40
25616;DHT22;13482;48.234;13.006;2024-02-16T15:36:09;26.80;54.30